Time;durP1;ratioP1;P1;durP2;ratioP2;P2;SDS_P1;SDS_P2;PMS_P1;PMS_P2;Temp;Humidity;BMP_temperature;BMP_pressure;BME280_temperature;BME280_humidity;BME280_pressure;Samples;Min_cycle;Max_cycle;Signal;HPM_P1;HPM_P2
2022/11/14 00:02:08;;;;;;;0.20;0.10;;;;;;;;;;5050566;28;20099;-82
2022/11/14 00:04:35;;;;;;;0.20;0.10;;;;;;;;;;5028407;28;20044;-83
2022/11/14 00:07:01;;;;;;;0.20;0.10;;;;;;;;;;5032220;28;20047;-83
2022/11/14 00:09:27;;;;;;;0.20;0.10;;;;;;;;;;5034171;28;20068;-84
2022/11/14 00:11:54;;;;;;;3.80;0.70;;;;;;;;;;5039917;28;20090;-82
2022/11/14 00:14:20;;;;;;;0.20;0.10;;;;;;;;;;5039512;28;20036;-83
2022/11/14 00:16:46;;;;;;;0.20;0.10;;;;;;;;;;5050113;28;20037;-82
2022/11/14 00:19:12;;;;;;;0.20;0.10;;;;;;;;;;5048839;28;20037;-82
2022/11/14 00:21:38;;;;;;;0.20;0.10;;;;;;;;;;5044704;28;20044;-82
2022/11/14 00:24:05;;;;;;;0.20;0.15;;;;;;;;;;5056713;28;20044;-83
2022/11/14 00:26:31;;;;;;;0.20;0.10;;;;;;;;;;5044341;28;20113;-82
2022/11/14 00:28:57;;;;;;;0.20;0.10;;;;;;;;;;5050512;28;20127;-83
2022/11/14 00:31:23;;;;;;;0.20;0.10;;;;;;;;;;5031067;28;20032;-82
2022/11/14 00:33:49;;;;;;;0.20;0.10;;;;;;;;;;5040003;28;20032;-83
2022/11/14 00:36:15;;;;;;;0.20;0.10;;;;;;;;;;5062227;28;20037;-84
2022/11/14 00:38:41;;;;;;;0.20;0.10;;;;;;;;;;5058372;28;20712;-83
2022/11/14 00:41:07;;;;;;;0.20;0.10;;;;;;;;;;5064096;28;20052;-83
2022/11/14 00:43:33;;;;;;;0.20;0.10;;;;;;;;;;5034653;28;20071;-82
2022/11/14 00:45:59;;;;;;;0.20;0.10;;;;;;;;;;5045035;28;20045;-83
2022/11/14 00:48:25;;;;;;;0.20;0.10;;;;;;;;;;5053405;28;20071;-82
2022/11/14 00:50:51;;;;;;;0.20;0.10;;;;;;;;;;5046918;28;20056;-83
2022/11/14 00:53:17;;;;;;;0.20;0.10;;;;;;;;;;5044679;28;20033;-83
2022/11/14 00:55:43;;;;;;;0.20;0.10;;;;;;;;;;5048316;28;20049;-81
2022/11/14 00:58:10;;;;;;;0.20;0.10;;;;;;;;;;5042855;28;20037;-83
2022/11/14 01:00:36;;;;;;;0.20;0.10;;;;;;;;;;5048324;28;20033;-83
2022/11/14 01:03:02;;;;;;;0.20;0.00;;;;;;;;;;5045540;28;20045;-83
2022/11/14 01:05:28;;;;;;;0.20;0.10;;;;;;;;;;5044824;28;20048;-83
2022/11/14 01:07:54;;;;;;;0.20;0.13;;;;;;;;;;5056967;28;20561;-84
2022/11/14 01:10:21;;;;;;;0.20;0.10;;;;;;;;;;5039731;28;20037;-83
2022/11/14 01:12:47;;;;;;;0.20;0.10;;;;;;;;;;5037951;28;20036;-83
2022/11/14 01:15:13;;;;;;;0.20;0.10;;;;;;;;;;5054636;28;20070;-83
2022/11/14 01:17:39;;;;;;;0.20;0.10;;;;;;;;;;5038575;28;20071;-84
2022/11/14 01:20:06;;;;;;;0.20;0.20;;;;;;;;;;5044663;28;20033;-82
2022/11/14 01:22:32;;;;;;;0.20;0.15;;;;;;;;;;5055752;28;20809;-83
2022/11/14 01:24:58;;;;;;;0.20;0.10;;;;;;;;;;5041185;28;20048;-85
2022/11/14 01:27:25;;;;;;;0.20;0.10;;;;;;;;;;5035709;28;20057;-83
2022/11/14 01:29:51;;;;;;;0.20;0.13;;;;;;;;;;5053791;28;20037;-82
2022/11/14 01:32:17;;;;;;;0.20;0.10;;;;;;;;;;5052370;28;20037;-83
2022/11/14 01:34:43;;;;;;;0.20;0.10;;;;;;;;;;5050579;28;20114;-83
2022/11/14 01:37:09;;;;;;;0.20;0.10;;;;;;;;;;5024207;28;20037;-82
2022/11/14 01:39:35;;;;;;;0.20;0.10;;;;;;;;;;5030283;28;20079;-83
2022/11/14 01:42:01;;;;;;;0.63;0.20;;;;;;;;;;5039651;28;20037;-83
2022/11/14 01:44:45;;;;;;;0.20;0.10;;;;;;;;;;5046537;28;20135;-83
2022/11/14 01:47:13;;;;;;;0.25;0.25;;;;;;;;;;5038429;28;20049;-83
2022/11/14 01:49:41;;;;;;;0.55;0.20;;;;;;;;;;5038110;28;20047;-84
2022/11/14 01:52:13;;;;;;;0.20;0.10;;;;;;;;;;5057510;28;20599;-83
2022/11/14 01:54:43;;;;;;;0.20;0.10;;;;;;;;;;5046596;28;20037;-84
2022/11/14 01:57:09;;;;;;;0.20;0.20;;;;;;;;;;5045961;28;20049;-84
2022/11/14 01:59:36;;;;;;;0.20;0.10;;;;;;;;;;5041197;28;20627;-83
2022/11/14 02:02:06;;;;;;;0.30;0.30;;;;;;;;;;5044170;28;20032;-83
2022/11/14 02:04:34;;;;;;;0.20;0.10;;;;;;;;;;5040201;28;20055;-84
2022/11/14 02:07:01;;;;;;;0.40;0.20;;;;;;;;;;5040833;28;20599;-83
2022/11/14 02:09:29;;;;;;;0.20;0.10;;;;;;;;;;5055915;28;20096;-82
2022/11/14 02:11:55;;;;;;;0.20;0.10;;;;;;;;;;5042854;28;20521;-83
2022/11/14 02:14:22;;;;;;;0.20;0.10;;;;;;;;;;5026797;28;20076;-82
2022/11/14 02:16:48;;;;;;;0.20;0.10;;;;;;;;;;5027765;28;20041;-84
2022/11/14 02:19:14;;;;;;;0.20;0.10;;;;;;;;;;5035554;28;20041;-82
2022/11/14 02:21:40;;;;;;;0.20;0.10;;;;;;;;;;5041584;28;20044;-83
2022/11/14 02:24:10;;;;;;;0.30;0.30;;;;;;;;;;5037598;28;20044;-83
2022/11/14 02:26:37;;;;;;;0.20;0.10;;;;;;;;;;5052630;28;20465;-83
2022/11/14 02:29:03;;;;;;;0.20;0.10;;;;;;;;;;5043025;28;20049;-83
2022/11/14 02:31:30;;;;;;;0.20;0.10;;;;;;;;;;5036202;28;20414;-83
2022/11/14 02:33:56;;;;;;;0.20;0.10;;;;;;;;;;5039037;28;20474;-85
2022/11/14 02:36:22;;;;;;;0.20;0.13;;;;;;;;;;5036283;22;20423;-83
2022/11/14 02:38:48;;;;;;;0.20;0.10;;;;;;;;;;4980954;28;20944;-86
2022/11/14 02:41:14;;;;;;;0.20;0.10;;;;;;;;;;4982034;28;20531;-84
2022/11/14 02:43:40;;;;;;;0.20;0.20;;;;;;;;;;5008364;28;20052;-85
2022/11/14 02:46:06;;;;;;;0.20;0.10;;;;;;;;;;4998056;28;20452;-86
2022/11/14 02:48:32;;;;;;;0.20;0.10;;;;;;;;;;4989720;28;20042;-84
2022/11/14 02:50:58;;;;;;;0.20;0.20;;;;;;;;;;5014136;28;20043;-85
2022/11/14 02:53:24;;;;;;;0.20;0.10;;;;;;;;;;5013693;28;20172;-85
2022/11/14 02:55:50;;;;;;;0.20;0.10;;;;;;;;;;5001493;28;20041;-85
2022/11/14 02:58:16;;;;;;;0.20;0.10;;;;;;;;;;5006422;28;20171;-84
2022/11/14 03:00:42;;;;;;;0.20;0.10;;;;;;;;;;5012996;28;20728;-84
2022/11/14 03:03:08;;;;;;;0.20;0.10;;;;;;;;;;4993451;28;20033;-84
2022/11/14 03:05:34;;;;;;;0.20;0.10;;;;;;;;;;5012515;28;20117;-84
2022/11/14 03:08:00;;;;;;;0.20;0.10;;;;;;;;;;5002914;28;20046;-83
2022/11/14 03:10:26;;;;;;;0.28;0.17;;;;;;;;;;5000881;28;20483;-86
2022/11/14 03:12:54;;;;;;;0.30;0.22;;;;;;;;;;5004796;28;20479;-85
2022/11/14 03:15:20;;;;;;;0.20;0.10;;;;;;;;;;5015847;28;20049;-84
2022/11/14 03:17:46;;;;;;;0.20;0.10;;;;;;;;;;5003225;28;20041;-85
2022/11/14 03:20:12;;;;;;;0.20;0.10;;;;;;;;;;5013289;28;20045;-84
2022/11/14 03:22:38;;;;;;;0.25;0.15;;;;;;;;;;5003220;28;20041;-84
2022/11/14 03:25:05;;;;;;;0.20;0.10;;;;;;;;;;5001636;28;20498;-84
2022/11/14 03:27:31;;;;;;;0.20;0.10;;;;;;;;;;4982371;28;20115;-84
2022/11/14 03:29:57;;;;;;;0.20;0.10;;;;;;;;;;4998276;28;20037;-85
2022/11/14 03:32:23;;;;;;;0.20;0.10;;;;;;;;;;4984500;28;20041;-88
2022/11/14 03:34:49;;;;;;;0.20;0.10;;;;;;;;;;5003895;28;20130;-87
2022/11/14 03:37:15;;;;;;;0.20;0.10;;;;;;;;;;5016336;28;20498;-84
2022/11/14 03:39:41;;;;;;;0.20;0.10;;;;;;;;;;5002108;28;20033;-84
2022/11/14 03:42:08;;;;;;;0.20;0.10;;;;;;;;;;5007060;28;20029;-85
2022/11/14 03:44:34;;;;;;;0.20;0.10;;;;;;;;;;5012629;28;20195;-85
2022/11/14 03:47:00;;;;;;;0.52;0.35;;;;;;;;;;5002762;28;20053;-85
2022/11/14 03:49:26;;;;;;;0.20;0.10;;;;;;;;;;5013714;28;20037;-85
2022/11/14 03:51:52;;;;;;;0.30;0.25;;;;;;;;;;5018395;28;20045;-84
2022/11/14 03:54:18;;;;;;;0.20;0.10;;;;;;;;;;5016015;28;20131;-84
2022/11/14 03:56:44;;;;;;;0.20;0.10;;;;;;;;;;5004928;28;20033;-86
2022/11/14 03:59:10;;;;;;;0.20;0.03;;;;;;;;;;4986327;28;20044;-85
2022/11/14 04:01:36;;;;;;;0.20;0.10;;;;;;;;;;5023448;28;20077;-85
2022/11/14 04:04:02;;;;;;;0.20;0.10;;;;;;;;;;5001111;28;20037;-85
2022/11/14 04:06:29;;;;;;;0.20;0.10;;;;;;;;;;4998875;28;20037;-86
2022/11/14 04:08:55;;;;;;;0.20;0.08;;;;;;;;;;5001873;28;20392;-84
2022/11/14 04:11:21;;;;;;;0.20;0.20;;;;;;;;;;5029830;28;20711;-83
2022/11/14 04:13:48;;;;;;;0.20;0.10;;;;;;;;;;4997958;28;20037;-86
2022/11/14 04:16:14;;;;;;;0.20;0.20;;;;;;;;;;4992203;28;20094;-85
2022/11/14 04:18:40;;;;;;;0.20;0.10;;;;;;;;;;5002948;28;20061;-87
2022/11/14 04:21:06;;;;;;;0.35;0.32;;;;;;;;;;4987060;28;20045;-86
2022/11/14 04:23:32;;;;;;;0.20;0.10;;;;;;;;;;4983861;28;20061;-84
2022/11/14 04:25:58;;;;;;;0.20;0.10;;;;;;;;;;5012864;28;20041;-85
2022/11/14 04:28:24;;;;;;;0.20;0.10;;;;;;;;;;4994346;28;20385;-87
2022/11/14 04:30:50;;;;;;;0.20;0.10;;;;;;;;;;4981919;28;20048;-87
2022/11/14 04:33:16;;;;;;;0.20;0.10;;;;;;;;;;4981747;28;20099;-85
2022/11/14 04:35:42;;;;;;;0.20;0.10;;;;;;;;;;4985081;28;21581;-85
2022/11/14 04:38:09;;;;;;;0.20;0.10;;;;;;;;;;4997732;28;20100;-86
2022/11/14 04:40:35;;;;;;;0.20;0.10;;;;;;;;;;5001842;28;20050;-86
2022/11/14 04:43:01;;;;;;;0.20;0.10;;;;;;;;;;5003634;28;20084;-88
2022/11/14 04:45:27;;;;;;;0.20;0.10;;;;;;;;;;4999211;28;20507;-84
2022/11/14 04:47:53;;;;;;;0.20;0.10;;;;;;;;;;4997665;28;20068;-85
2022/11/14 04:50:19;;;;;;;0.20;0.20;;;;;;;;;;4988440;28;20045;-86
2022/11/14 04:52:45;;;;;;;0.20;0.10;;;;;;;;;;4994348;28;20462;-87
2022/11/14 04:55:12;;;;;;;0.20;0.10;;;;;;;;;;5000898;28;20605;-86
2022/11/14 04:57:38;;;;;;;1.95;0.55;;;;;;;;;;4986982;28;20160;-85
2022/11/14 05:00:04;;;;;;;0.20;0.10;;;;;;;;;;4999946;28;20038;-86
2022/11/14 05:02:31;;;;;;;0.20;0.10;;;;;;;;;;5010324;28;20038;-85
2022/11/14 05:04:57;;;;;;;0.20;0.10;;;;;;;;;;4999185;28;20733;-85
2022/11/14 05:07:23;;;;;;;0.20;0.10;;;;;;;;;;5000152;28;20087;-85
2022/11/14 05:09:49;;;;;;;0.77;0.25;;;;;;;;;;4993420;28;21011;-85
2022/11/14 05:12:15;;;;;;;0.20;0.10;;;;;;;;;;4993992;28;20049;-85
2022/11/14 05:14:41;;;;;;;0.40;0.20;;;;;;;;;;4981542;28;20034;-83
2022/11/14 05:17:08;;;;;;;0.20;0.10;;;;;;;;;;5001156;28;20034;-84
2022/11/14 05:19:34;;;;;;;0.20;0.10;;;;;;;;;;4990659;28;20045;-86
2022/11/14 05:22:00;;;;;;;0.20;0.20;;;;;;;;;;4998540;28;20129;-85
2022/11/14 05:24:27;;;;;;;0.20;0.10;;;;;;;;;;4984028;28;20081;-88
2022/11/14 05:26:53;;;;;;;0.20;0.10;;;;;;;;;;5003036;28;20041;-84
2022/11/14 05:29:19;;;;;;;0.20;0.10;;;;;;;;;;5000618;28;20726;-86
2022/11/14 05:31:45;;;;;;;0.20;0.10;;;;;;;;;;5014715;28;20045;-86
2022/11/14 05:34:11;;;;;;;0.20;0.10;;;;;;;;;;5001689;28;20042;-84
2022/11/14 05:36:37;;;;;;;0.20;0.13;;;;;;;;;;5001441;28;20049;-84
2022/11/14 05:39:03;;;;;;;0.20;0.10;;;;;;;;;;4996631;28;20041;-85
2022/11/14 05:41:29;;;;;;;0.20;0.10;;;;;;;;;;5001057;28;20305;-89
2022/11/14 05:43:55;;;;;;;0.20;0.10;;;;;;;;;;4995301;28;20045;-84
2022/11/14 05:46:22;;;;;;;0.20;0.10;;;;;;;;;;4977795;28;20048;-85
2022/11/14 05:48:48;;;;;;;0.22;0.22;;;;;;;;;;5010620;28;20046;-84
2022/11/14 05:51:14;;;;;;;0.52;0.52;;;;;;;;;;5002976;28;20037;-85
2022/11/14 05:53:40;;;;;;;0.77;0.40;;;;;;;;;;5000124;28;20037;-86
2022/11/14 05:56:09;;;;;;;0.20;0.10;;;;;;;;;;4991523;28;20045;-85
2022/11/14 05:58:35;;;;;;;0.20;0.10;;;;;;;;;;4992940;28;20140;-85
2022/11/14 06:01:05;;;;;;;0.20;0.10;;;;;;;;;;5011246;28;20034;-88
2022/11/14 06:03:32;;;;;;;0.20;0.10;;;;;;;;;;4998640;28;20048;-83
2022/11/14 06:06:03;;;;;;;0.25;0.25;;;;;;;;;;4998283;28;20049;-84
2022/11/14 06:08:29;;;;;;;0.20;0.17;;;;;;;;;;4983723;28;20041;-85
2022/11/14 06:10:56;;;;;;;0.20;0.20;;;;;;;;;;5001463;28;20048;-85
2022/11/14 06:13:25;;;;;;;0.20;0.10;;;;;;;;;;5001836;28;20677;-84
2022/11/14 06:15:51;;;;;;;0.28;0.20;;;;;;;;;;4997737;28;20045;-85
2022/11/14 06:18:17;;;;;;;0.20;0.10;;;;;;;;;;5010286;28;20052;-87
2022/11/14 06:20:43;;;;;;;0.20;0.10;;;;;;;;;;4996255;28;20127;-85
2022/11/14 06:23:09;;;;;;;0.30;0.20;;;;;;;;;;4985523;28;21262;-85
2022/11/14 06:25:35;;;;;;;0.20;0.13;;;;;;;;;;5003938;28;20030;-87
2022/11/14 06:28:01;;;;;;;0.20;0.10;;;;;;;;;;4983806;28;20073;-85
2022/11/14 06:30:27;;;;;;;0.20;0.10;;;;;;;;;;4993274;28;20042;-84
2022/11/14 06:32:59;;;;;;;0.20;0.10;;;;;;;;;;4996581;28;20080;-86
2022/11/14 06:35:26;;;;;;;0.20;0.10;;;;;;;;;;4994569;28;20099;-85
2022/11/14 06:37:52;;;;;;;0.20;0.10;;;;;;;;;;5019211;28;20169;-87
2022/11/14 06:40:18;;;;;;;0.20;0.10;;;;;;;;;;4998653;28;20069;-84
2022/11/14 06:42:44;;;;;;;0.20;0.10;;;;;;;;;;5002118;28;20522;-85
2022/11/14 06:45:10;;;;;;;0.20;0.10;;;;;;;;;;4984009;28;20048;-84
2022/11/14 06:47:37;;;;;;;0.20;0.10;;;;;;;;;;4984672;28;20052;-86
2022/11/14 06:50:06;;;;;;;0.20;0.10;;;;;;;;;;4997661;28;20048;-85
2022/11/14 06:52:33;;;;;;;0.20;0.10;;;;;;;;;;4998998;28;20067;-84
2022/11/14 06:54:59;;;;;;;0.22;0.20;;;;;;;;;;5017303;28;20085;-85
2022/11/14 06:57:28;;;;;;;0.20;0.10;;;;;;;;;;5007486;28;20056;-84
2022/11/14 06:59:54;;;;;;;0.20;0.10;;;;;;;;;;4983662;28;20523;-84
2022/11/14 07:02:20;;;;;;;0.20;0.10;;;;;;;;;;4992929;28;20088;-86
2022/11/14 07:04:49;;;;;;;0.20;0.10;;;;;;;;;;5009952;28;20064;-88
2022/11/14 07:07:15;;;;;;;0.20;0.10;;;;;;;;;;5000433;28;20044;-86
2022/11/14 07:09:41;;;;;;;6.05;0.65;;;;;;;;;;4996749;28;20037;-86
2022/11/14 07:12:08;;;;;;;0.38;0.38;;;;;;;;;;4996022;28;20049;-85
2022/11/14 07:14:34;;;;;;;0.20;0.10;;;;;;;;;;4996010;28;20033;-85
2022/11/14 07:17:00;;;;;;;0.20;0.10;;;;;;;;;;5008317;28;20368;-86
2022/11/14 07:19:26;;;;;;;0.20;0.10;;;;;;;;;;5001061;28;20079;-85
2022/11/14 07:21:53;;;;;;;0.20;0.10;;;;;;;;;;4978979;28;20060;-85
2022/11/14 07:24:19;;;;;;;0.20;0.20;;;;;;;;;;4990838;28;20072;-86
2022/11/14 07:26:45;;;;;;;0.20;0.10;;;;;;;;;;4980797;28;20037;-85
2022/11/14 07:29:11;;;;;;;0.20;0.10;;;;;;;;;;5009496;28;20038;-85
2022/11/14 07:31:37;;;;;;;0.73;0.30;;;;;;;;;;4992841;28;20045;-85
2022/11/14 07:34:04;;;;;;;0.20;0.10;;;;;;;;;;5011883;28;20045;-84
2022/11/14 07:36:31;;;;;;;0.30;0.25;;;;;;;;;;4982204;28;20610;-86
2022/11/14 07:38:57;;;;;;;0.20;0.10;;;;;;;;;;4998695;28;20045;-85
2022/11/14 07:41:23;;;;;;;0.20;0.10;;;;;;;;;;5009710;28;20038;-85
2022/11/14 07:43:49;;;;;;;0.20;0.10;;;;;;;;;;4981068;28;20495;-85
2022/11/14 07:46:16;;;;;;;0.20;0.20;;;;;;;;;;4995264;28;20033;-85
2022/11/14 07:48:42;;;;;;;0.20;0.10;;;;;;;;;;4994129;28;20539;-85
2022/11/14 07:51:16;;;;;;;0.20;0.10;;;;;;;;;;4980030;28;20047;-85
2022/11/14 07:53:42;;;;;;;0.20;0.10;;;;;;;;;;4995987;28;20037;-84
2022/11/14 07:56:09;;;;;;;0.20;0.10;;;;;;;;;;4999192;28;20130;-85
2022/11/14 07:58:36;;;;;;;0.20;0.10;;;;;;;;;;5006649;28;20072;-85
2022/11/14 08:01:02;;;;;;;0.20;0.10;;;;;;;;;;4979045;28;20068;-85
2022/11/14 08:03:28;;;;;;;0.20;0.10;;;;;;;;;;4995650;28;20065;-84
2022/11/14 08:06:01;;;;;;;4.28;0.45;;;;;;;;;;4978816;28;20124;-85
2022/11/14 08:08:27;;;;;;;0.20;0.10;;;;;;;;;;5011967;28;20045;-85
2022/11/14 08:10:56;;;;;;;0.20;0.10;;;;;;;;;;5010302;28;20126;-83
2022/11/14 08:13:22;;;;;;;0.20;0.10;;;;;;;;;;5011475;28;20073;-85
2022/11/14 08:15:48;;;;;;;0.30;0.20;;;;;;;;;;4992601;28;20045;-85
2022/11/14 08:18:14;;;;;;;0.20;0.10;;;;;;;;;;4980536;28;20045;-85
2022/11/14 08:20:40;;;;;;;0.20;0.10;;;;;;;;;;4989287;28;20040;-85
2022/11/14 08:23:06;;;;;;;0.20;0.10;;;;;;;;;;4998837;28;20522;-85
2022/11/14 08:25:32;;;;;;;0.20;0.10;;;;;;;;;;4976991;28;20037;-85
2022/11/14 08:27:58;;;;;;;0.20;0.20;;;;;;;;;;4987298;28;20050;-86
2022/11/14 08:30:25;;;;;;;0.20;0.10;;;;;;;;;;4999887;28;20172;-86
2022/11/14 08:32:51;;;;;;;0.50;0.47;;;;;;;;;;4982494;28;20038;-85
2022/11/14 08:35:17;;;;;;;0.20;0.10;;;;;;;;;;4999626;28;20049;-87
2022/11/14 08:37:44;;;;;;;0.20;0.17;;;;;;;;;;5051495;23;20049;-81
2022/11/14 08:40:10;;;;;;;0.20;0.10;;;;;;;;;;5024559;28;20037;-81
2022/11/14 08:42:36;;;;;;;0.20;0.10;;;;;;;;;;5024640;28;20092;-81
2022/11/14 08:45:03;;;;;;;0.20;0.10;;;;;;;;;;5041508;28;20041;-81
2022/11/14 08:47:29;;;;;;;0.20;0.10;;;;;;;;;;4993079;28;20045;-81
2022/11/14 08:49:55;;;;;;;0.20;0.10;;;;;;;;;;5014030;28;21347;-82
2022/11/14 08:52:21;;;;;;;0.30;0.20;;;;;;;;;;5015547;28;20096;-81
2022/11/14 08:54:47;;;;;;;0.20;0.10;;;;;;;;;;5024183;28;20037;-82
2022/11/14 08:57:14;;;;;;;0.20;0.10;;;;;;;;;;5010248;28;20072;-82
2022/11/14 08:59:43;;;;;;;0.20;0.10;;;;;;;;;;5024368;28;20547;-81
2022/11/14 09:02:12;;;;;;;0.20;0.10;;;;;;;;;;5026689;28;20042;-81
2022/11/14 09:04:38;;;;;;;0.40;0.40;;;;;;;;;;5041072;28;20061;-84
2022/11/14 09:07:05;;;;;;;0.63;0.40;;;;;;;;;;5006460;28;20092;-81
2022/11/14 09:09:31;;;;;;;0.20;0.10;;;;;;;;;;5011767;28;20069;-81
2022/11/14 09:11:57;;;;;;;0.82;0.25;;;;;;;;;;5026144;28;20034;-82
2022/11/14 09:14:23;;;;;;;1.85;1.15;;;;;;;;;;5022404;28;20037;-81
2022/11/14 09:16:49;;;;;;;0.43;0.43;;;;;;;;;;5026060;28;20073;-81
2022/11/14 09:19:15;;;;;;;0.20;0.10;;;;;;;;;;5034217;28;20042;-81
2022/11/14 09:21:41;;;;;;;0.20;0.10;;;;;;;;;;5011499;28;20050;-82
2022/11/14 09:24:08;;;;;;;0.30;0.20;;;;;;;;;;5010994;28;20040;-81
2022/11/14 09:26:34;;;;;;;0.38;0.20;;;;;;;;;;5026705;28;20034;-80
2022/11/14 09:29:01;;;;;;;0.20;0.10;;;;;;;;;;5031692;28;20048;-81
2022/11/14 09:31:27;;;;;;;0.20;0.10;;;;;;;;;;5034564;28;20041;-82
2022/11/14 09:33:53;;;;;;;0.68;0.32;;;;;;;;;;5032228;28;20540;-81
2022/11/14 09:36:19;;;;;;;0.20;0.10;;;;;;;;;;5017235;28;20079;-82
2022/11/14 09:38:46;;;;;;;0.20;0.15;;;;;;;;;;5030107;28;20056;-81
2022/11/14 09:41:18;;;;;;;0.20;0.10;;;;;;;;;;5009867;28;20045;-82
2022/11/14 09:43:57;;;;;;;0.20;0.15;;;;;;;;;;5013517;28;21409;-82
2022/11/14 09:46:31;;;;;;;0.20;0.10;;;;;;;;;;5033572;28;20045;-82
2022/11/14 09:48:57;;;;;;;0.20;0.10;;;;;;;;;;5012169;28;20055;-81
2022/11/14 09:51:30;;;;;;;0.30;0.30;;;;;;;;;;5020613;28;20083;-81
2022/11/14 09:54:06;;;;;;;0.20;0.10;;;;;;;;;;5019017;28;20499;-82
2022/11/14 09:56:33;;;;;;;0.20;0.10;;;;;;;;;;5013688;28;20085;-84
2022/11/14 09:58:59;;;;;;;0.20;0.10;;;;;;;;;;5017044;28;20042;-81
2022/11/14 10:01:25;;;;;;;0.20;0.10;;;;;;;;;;4997771;28;20037;-82
2022/11/14 10:04:03;;;;;;;0.20;0.10;;;;;;;;;;5020849;28;20041;-83
2022/11/14 10:06:33;;;;;;;0.20;0.10;;;;;;;;;;5012926;28;20052;-81
2022/11/14 10:09:05;;;;;;;0.20;0.10;;;;;;;;;;5017724;28;20056;-81
2022/11/14 10:11:49;;;;;;;0.20;0.10;;;;;;;;;;5018730;28;20067;-82
2022/11/14 10:14:28;;;;;;;0.20;0.10;;;;;;;;;;5025098;28;20546;-83
2022/11/14 10:17:07;;;;;;;0.20;0.10;;;;;;;;;;5025442;28;20053;-82
2022/11/14 10:19:52;;;;;;;0.20;0.10;;;;;;;;;;5016046;28;20040;-84
2022/11/14 10:22:18;;;;;;;0.20;0.10;;;;;;;;;;5010337;28;20044;-81
2022/11/14 10:24:50;;;;;;;0.20;0.10;;;;;;;;;;5005158;28;20398;-82
2022/11/14 10:27:24;;;;;;;0.20;0.20;;;;;;;;;;5024736;28;20041;-81
2022/11/14 10:29:50;;;;;;;0.20;0.10;;;;;;;;;;5026939;28;20033;-82
2022/11/14 10:32:23;;;;;;;0.20;0.10;;;;;;;;;;5013377;28;20068;-82
2022/11/14 10:34:49;;;;;;;;;;;;;;;;;;5034237;28;20029;-82
2022/11/14 10:37:33;;;;;;;0.20;0.10;;;;;;;;;;5040810;28;19917;-81
2022/11/14 10:40:21;;;;;;;0.20;0.10;;;;;;;;;;5024840;28;20048;-82
2022/11/14 10:42:50;;;;;;;0.20;0.10;;;;;;;;;;5033191;28;20099;-85
2022/11/14 10:45:27;;;;;;;0.20;0.10;;;;;;;;;;5016449;28;20034;-82
2022/11/14 10:47:57;;;;;;;0.20;0.10;;;;;;;;;;5034605;28;20037;-82
2022/11/14 10:50:27;;;;;;;0.43;0.43;;;;;;;;;;5030252;28;20041;-82
2022/11/14 10:52:56;;;;;;;0.40;0.30;;;;;;;;;;5032152;28;20719;-81
2022/11/14 10:55:23;;;;;;;0.20;0.10;;;;;;;;;;5017390;28;20406;-81
2022/11/14 10:57:50;;;;;;;0.20;0.10;;;;;;;;;;5010836;28;20376;-82
2022/11/14 11:00:17;;;;;;;0.20;0.10;;;;;;;;;;5010796;28;20046;-81
2022/11/14 11:02:48;;;;;;;0.20;0.10;;;;;;;;;;5032901;28;20045;-80
2022/11/14 11:05:15;;;;;;;0.40;0.40;;;;;;;;;;5015279;28;20387;-82
2022/11/14 11:13:29;;;;;;;0.20;0.10;;;;;;;;;;5032394;28;20099;-81
2022/11/14 11:15:57;;;;;;;0.20;0.10;;;;;;;;;;5025772;28;20049;-82
2022/11/14 11:18:28;;;;;;;0.20;0.10;;;;;;;;;;5008858;28;20037;-82
2022/11/14 11:21:08;;;;;;;0.28;0.17;;;;;;;;;;5008444;28;20075;-81
2022/11/14 11:23:34;;;;;;;0.20;0.10;;;;;;;;;;5013333;28;20129;-81
2022/11/14 11:26:04;;;;;;;0.20;0.10;;;;;;;;;;5038678;28;20073;-81
2022/11/14 11:28:31;;;;;;;0.20;0.10;;;;;;;;;;5014007;28;20577;-81
2022/11/14 11:30:59;;;;;;;0.20;0.10;;;;;;;;;;5013921;28;20051;-82
2022/11/14 11:33:29;;;;;;;0.20;0.10;;;;;;;;;;5008723;28;20044;-82
2022/11/14 11:35:57;;;;;;;0.20;0.10;;;;;;;;;;5006488;28;20045;-81
2022/11/14 11:38:26;;;;;;;0.20;0.10;;;;;;;;;;5005748;28;20051;-81
2022/11/14 11:40:54;;;;;;;5.35;0.57;;;;;;;;;;5030513;28;20072;-81
2022/11/14 11:43:30;;;;;;;0.20;0.10;;;;;;;;;;5025806;28;20033;-81
2022/11/14 11:45:57;;;;;;;0.20;0.10;;;;;;;;;;5005422;28;20065;-81
2022/11/14 11:48:27;;;;;;;0.20;0.10;;;;;;;;;;4992299;28;20508;-81
2022/11/14 11:50:53;;;;;;;0.20;0.10;;;;;;;;;;5027389;28;20109;-82
2022/11/14 11:53:25;;;;;;;0.20;0.10;;;;;;;;;;5005694;28;20064;-82
2022/11/14 11:55:53;;;;;;;0.20;0.10;;;;;;;;;;5006569;28;20049;-81
2022/11/14 11:58:37;;;;;;;0.20;0.10;;;;;;;;;;5022543;28;20037;-80
2022/11/14 12:01:04;;;;;;;0.20;0.10;;;;;;;;;;5019030;28;20073;-82
2022/11/14 12:03:30;;;;;;;0.20;0.10;;;;;;;;;;5005173;28;20053;-82
2022/11/14 12:05:56;;;;;;;0.20;0.10;;;;;;;;;;4985252;28;20136;-82
2022/11/14 12:08:41;;;;;;;0.20;0.20;;;;;;;;;;5022677;28;20077;-82
2022/11/14 12:11:11;;;;;;;0.20;0.10;;;;;;;;;;5017198;28;20043;-83
2022/11/14 12:13:47;;;;;;;0.20;0.10;;;;;;;;;;5009225;28;20120;-83
2022/11/14 12:16:23;;;;;;;0.20;0.10;;;;;;;;;;5019458;28;20056;-82
2022/11/14 12:18:49;;;;;;;0.20;0.10;;;;;;;;;;5017269;28;20131;-81
2022/11/14 12:21:34;;;;;;;0.20;0.10;;;;;;;;;;5020474;28;20099;-82
2022/11/14 12:24:00;;;;;;;0.20;0.10;;;;;;;;;;5016179;28;20046;-82
2022/11/14 12:26:26;;;;;;;0.20;0.10;;;;;;;;;;5021090;28;20088;-82
2022/11/14 12:28:58;;;;;;;0.20;0.10;;;;;;;;;;5009739;28;20048;-82
2022/11/14 12:31:27;;;;;;;0.30;0.20;;;;;;;;;;5022996;28;20029;-82
2022/11/14 12:34:20;;;;;;;0.20;0.20;;;;;;;;;;5009048;28;20030;-83
2022/11/14 12:36:46;;;;;;;0.20;0.10;;;;;;;;;;5029955;28;20049;-82
2022/11/14 12:39:24;;;;;;;0.20;0.10;;;;;;;;;;5034289;28;20037;-83
2022/11/14 12:41:50;;;;;;;0.20;0.10;;;;;;;;;;5048848;28;20046;-82
2022/11/14 12:44:16;;;;;;;0.20;0.10;;;;;;;;;;5020643;28;20037;-82
2022/11/14 12:47:01;;;;;;;0.20;0.10;;;;;;;;;;5036707;28;20034;-82
2022/11/14 12:49:46;;;;;;;0.20;0.10;;;;;;;;;;5016148;28;20037;-82
2022/11/14 12:52:31;;;;;;;0.20;0.10;;;;;;;;;;5025080;28;20063;-82
2022/11/14 12:54:57;;;;;;;1.38;0.20;;;;;;;;;;5019704;28;20049;-81
2022/11/14 13:00:26;;;;;;;0.20;0.10;;;;;;;;;;5027038;28;20056;-83
2022/11/14 13:02:59;;;;;;;0.20;0.10;;;;;;;;;;5043299;28;20427;-82
2022/11/14 13:05:45;;;;;;;0.20;0.20;;;;;;;;;;5033824;28;20044;-82
2022/11/14 13:08:30;;;;;;;0.20;0.10;;;;;;;;;;5014756;28;20037;-82
2022/11/14 13:10:56;;;;;;;0.20;0.10;;;;;;;;;;5033003;28;20038;-82
2022/11/14 13:22:11;;;;;;;0.20;0.10;;;;;;;;;;5028489;28;22602;-82
2022/11/14 13:24:58;;;;;;;0.20;0.10;;;;;;;;;;5037869;28;20045;-81
2022/11/14 13:27:34;;;;;;;0.20;0.10;;;;;;;;;;5027769;28;20033;-82
2022/11/14 13:30:01;;;;;;;0.20;0.10;;;;;;;;;;5027518;28;20088;-82
2022/11/14 13:32:40;;;;;;;0.20;0.08;;;;;;;;;;5034541;28;20101;-82
2022/11/14 13:35:13;;;;;;;0.20;0.10;;;;;;;;;;5032699;28;20048;-82
2022/11/14 13:37:58;;;;;;;0.20;0.10;;;;;;;;;;5033936;28;20038;-82
2022/11/14 13:40:46;;;;;;;0.20;0.10;;;;;;;;;;5023517;28;20072;-83
2022/11/14 13:43:31;;;;;;;0.32;0.32;;;;;;;;;;5016196;28;20037;-82
2022/11/14 13:45:57;;;;;;;0.25;0.20;;;;;;;;;;5015645;28;20061;-82
2022/11/14 13:48:35;;;;;;;0.20;0.10;;;;;;;;;;5030997;28;20112;-81
2022/11/14 13:51:05;;;;;;;0.20;0.10;;;;;;;;;;5018717;28;20495;-81
2022/11/14 13:53:31;;;;;;;0.20;0.10;;;;;;;;;;5037839;28;20029;-82
2022/11/14 13:56:08;;;;;;;0.20;0.10;;;;;;;;;;5026781;28;20042;-81
2022/11/14 13:58:38;;;;;;;0.20;0.10;;;;;;;;;;5018415;28;20049;-82
2022/11/14 14:01:23;;;;;;;0.20;0.10;;;;;;;;;;5022260;28;20056;-80
2022/11/14 14:03:55;;;;;;;0.20;0.10;;;;;;;;;;5035663;28;20071;-81
2022/11/14 14:06:34;;;;;;;0.20;0.10;;;;;;;;;;5031395;28;20519;-80
2022/11/14 14:09:00;;;;;;;0.85;0.40;;;;;;;;;;5026476;28;20102;-81
2022/11/14 14:11:53;;;;;;;0.20;0.10;;;;;;;;;;5047084;28;20033;-81
2022/11/14 14:14:38;;;;;;;0.20;0.10;;;;;;;;;;5013219;28;20038;-81
2022/11/14 14:17:11;;;;;;;0.20;0.10;;;;;;;;;;5027131;28;20539;-81
2022/11/14 14:19:52;;;;;;;0.20;0.00;;;;;;;;;;5012090;28;20064;-81
2022/11/14 14:22:36;;;;;;;0.20;0.10;;;;;;;;;;5014827;28;20064;-81
2022/11/14 14:25:28;;;;;;;0.20;0.10;;;;;;;;;;5019007;28;20061;-81
2022/11/14 14:28:00;;;;;;;0.20;0.10;;;;;;;;;;5017844;28;20045;-81
2022/11/14 14:30:26;;;;;;;0.20;0.00;;;;;;;;;;5015862;28;20404;-81
2022/11/14 14:33:07;;;;;;;0.20;0.10;;;;;;;;;;5037377;28;20046;-80
2022/11/14 14:35:35;;;;;;;0.20;0.10;;;;;;;;;;5024491;28;20059;-83
2022/11/14 14:38:01;;;;;;;0.20;0.10;;;;;;;;;;5017768;22;20116;-89
2022/11/14 14:40:32;;;;;;;0.20;0.10;;;;;;;;;;5015151;28;20050;-90
2022/11/14 14:43:05;;;;;;;0.20;0.10;;;;;;;;;;5003373;28;20042;-91
2022/11/14 14:45:38;;;;;;;0.20;0.10;;;;;;;;;;5035797;28;20119;-90
2022/11/14 14:48:24;;;;;;;0.30;0.30;;;;;;;;;;5017647;28;20046;-87
2022/11/14 14:51:06;;;;;;;0.20;0.10;;;;;;;;;;5000077;28;20416;-90
2022/11/14 14:53:42;;;;;;;0.20;0.10;;;;;;;;;;5004704;28;20046;-88
2022/11/14 14:56:23;;;;;;;0.32;0.30;;;;;;;;;;5001322;28;20068;-87
2022/11/14 14:58:53;;;;;;;0.20;0.10;;;;;;;;;;5015985;28;20037;-88
2022/11/14 15:01:22;;;;;;;0.20;0.10;;;;;;;;;;5004292;28;20076;-88
2022/11/14 15:03:51;;;;;;;0.22;0.13;;;;;;;;;;5018230;28;20047;-87
2022/11/14 15:06:30;;;;;;;0.20;0.10;;;;;;;;;;5003941;28;20487;-87
2022/11/14 15:09:01;;;;;;;0.20;0.10;;;;;;;;;;5022639;28;20098;-88
2022/11/14 15:11:34;;;;;;;0.20;0.10;;;;;;;;;;5018365;28;20519;-89